sensor_id;sensor_type;location;lat;lon;timestamp;temperature;humidity
23120;DHT22;11729;50.836;4.330;2023-08-06T00:00:20;16.10;99.90
23120;DHT22;11729;50.836;4.330;2023-08-06T00:02:46;16.10;99.90
23120;DHT22;11729;50.836;4.330;2023-08-06T00:05:12;16.10;99.90
23120;DHT22;11729;50.836;4.330;2023-08-06T00:07:37;16.10;99.90
23120;DHT22;11729;50.836;4.330;2023-08-06T00:10:03;16.20;99.90
23120;DHT22;11729;50.836;4.330;2023-08-06T00:12:29;16.20;99.90
23120;DHT22;11729;50.836;4.330;2023-08-06T00:14:55;16.20;99.90
23120;DHT22;11729;50.836;4.330;2023-08-06T00:17:20;16.20;99.90
23120;DHT22;11729;50.836;4.330;2023-08-06T00:19:46;16.20;99.90
23120;DHT22;11729;50.836;4.330;2023-08-06T00:22:12;16.10;99.90
23120;DHT22;11729;50.836;4.330;2023-08-06T00:24:37;16.10;99.90
23120;DHT22;11729;50.836;4.330;2023-08-06T00:27:03;16.20;99.90
23120;DHT22;11729;50.836;4.330;2023-08-06T00:29:30;16.20;99.90
23120;DHT22;11729;50.836;4.330;2023-08-06T00:31:56;16.30;99.90
23120;DHT22;11729;50.836;4.330;2023-08-06T00:34:21;16.40;99.90
23120;DHT22;11729;50.836;4.330;2023-08-06T00:36:47;16.40;99.90
23120;DHT22;11729;50.836;4.330;2023-08-06T00:39:13;16.40;99.90
23120;DHT22;11729;50.836;4.330;2023-08-06T00:41:40;16.40;99.90
23120;DHT22;11729;50.836;4.330;2023-08-06T00:44:05;16.40;99.90
23120;DHT22;11729;50.836;4.330;2023-08-06T00:46:32;16.40;99.90
23120;DHT22;11729;50.836;4.330;2023-08-06T00:48:59;16.40;99.90
23120;DHT22;11729;50.836;4.330;2023-08-06T00:51:26;16.40;99.90
23120;DHT22;11729;50.836;4.330;2023-08-06T00:53:52;16.50;99.90
23120;DHT22;11729;50.836;4.330;2023-08-06T00:56:19;16.50;99.90
23120;DHT22;11729;50.836;4.330;2023-08-06T00:58:46;16.40;99.90
23120;DHT22;11729;50.836;4.330;2023-08-06T01:01:12;16.30;99.90
23120;DHT22;11729;50.836;4.330;2023-08-06T01:03:38;16.40;99.90
23120;DHT22;11729;50.836;4.330;2023-08-06T01:06:05;16.40;99.90
23120;DHT22;11729;50.836;4.330;2023-08-06T01:08:48;16.40;99.90
23120;DHT22;11729;50.836;4.330;2023-08-06T01:11:44;16.50;99.90
23120;DHT22;11729;50.836;4.330;2023-08-06T01:14:33;16.40;99.90
23120;DHT22;11729;50.836;4.330;2023-08-06T01:17:04;16.50;99.90
23120;DHT22;11729;50.836;4.330;2023-08-06T01:19:30;16.50;99.90
23120;DHT22;11729;50.836;4.330;2023-08-06T01:21:55;16.50;99.90
23120;DHT22;11729;50.836;4.330;2023-08-06T01:24:21;16.50;99.90
23120;DHT22;11729;50.836;4.330;2023-08-06T01:27:10;16.50;99.90
23120;DHT22;11729;50.836;4.330;2023-08-06T01:29:51;16.50;99.90
23120;DHT22;11729;50.836;4.330;2023-08-06T01:32:22;16.50;99.90
23120;DHT22;11729;50.836;4.330;2023-08-06T01:34:50;16.50;99.90
23120;DHT22;11729;50.836;4.330;2023-08-06T01:37:16;16.40;99.90
23120;DHT22;11729;50.836;4.330;2023-08-06T01:39:42;16.40;99.90
23120;DHT22;11729;50.836;4.330;2023-08-06T01:42:09;16.40;99.90
23120;DHT22;11729;50.836;4.330;2023-08-06T01:44:34;16.50;99.90
23120;DHT22;11729;50.836;4.330;2023-08-06T01:47:00;16.40;99.90
23120;DHT22;11729;50.836;4.330;2023-08-06T01:49:27;16.40;99.90
23120;DHT22;11729;50.836;4.330;2023-08-06T01:51:52;16.40;99.90
23120;DHT22;11729;50.836;4.330;2023-08-06T01:54:18;16.40;99.90
23120;DHT22;11729;50.836;4.330;2023-08-06T01:56:44;16.40;99.90
23120;DHT22;11729;50.836;4.330;2023-08-06T01:59:09;16.30;99.90
23120;DHT22;11729;50.836;4.330;2023-08-06T02:01:35;16.40;99.90
23120;DHT22;11729;50.836;4.330;2023-08-06T02:04:00;16.30;99.90
23120;DHT22;11729;50.836;4.330;2023-08-06T02:06:26;16.20;99.90
23120;DHT22;11729;50.836;4.330;2023-08-06T02:08:52;16.10;99.90
23120;DHT22;11729;50.836;4.330;2023-08-06T02:11:17;16.00;99.90
23120;DHT22;11729;50.836;4.330;2023-08-06T02:13:43;16.00;99.90
23120;DHT22;11729;50.836;4.330;2023-08-06T02:16:09;16.00;99.90
23120;DHT22;11729;50.836;4.330;2023-08-06T02:18:35;16.10;99.90
23120;DHT22;11729;50.836;4.330;2023-08-06T02:21:00;16.20;99.90
23120;DHT22;11729;50.836;4.330;2023-08-06T02:23:26;16.20;99.90
23120;DHT22;11729;50.836;4.330;2023-08-06T02:26:02;16.10;99.90
23120;DHT22;11729;50.836;4.330;2023-08-06T02:28:31;15.90;99.90
23120;DHT22;11729;50.836;4.330;2023-08-06T02:30:58;15.90;99.90
23120;DHT22;11729;50.836;4.330;2023-08-06T02:33:23;16.00;99.90
23120;DHT22;11729;50.836;4.330;2023-08-06T02:35:49;16.30;99.90
23120;DHT22;11729;50.836;4.330;2023-08-06T02:38:15;16.20;99.90
23120;DHT22;11729;50.836;4.330;2023-08-06T02:40:44;16.10;99.90
23120;DHT22;11729;50.836;4.330;2023-08-06T02:43:12;16.00;99.90
23120;DHT22;11729;50.836;4.330;2023-08-06T02:45:38;16.00;99.90
23120;DHT22;11729;50.836;4.330;2023-08-06T02:48:04;16.00;99.90
23120;DHT22;11729;50.836;4.330;2023-08-06T02:50:29;16.10;99.90
23120;DHT22;11729;50.836;4.330;2023-08-06T02:52:55;16.10;99.90
23120;DHT22;11729;50.836;4.330;2023-08-06T02:55:21;16.10;99.90
23120;DHT22;11729;50.836;4.330;2023-08-06T02:57:46;16.20;99.90
23120;DHT22;11729;50.836;4.330;2023-08-06T03:00:12;16.20;99.90
23120;DHT22;11729;50.836;4.330;2023-08-06T03:02:37;16.30;99.90
23120;DHT22;11729;50.836;4.330;2023-08-06T03:05:03;16.30;99.90
23120;DHT22;11729;50.836;4.330;2023-08-06T03:07:29;16.30;99.90
23120;DHT22;11729;50.836;4.330;2023-08-06T03:09:55;16.20;99.90
23120;DHT22;11729;50.836;4.330;2023-08-06T03:12:21;16.30;99.90
23120;DHT22;11729;50.836;4.330;2023-08-06T03:14:47;16.20;99.90
23120;DHT22;11729;50.836;4.330;2023-08-06T03:17:12;16.30;99.90
23120;DHT22;11729;50.836;4.330;2023-08-06T03:19:38;16.20;99.90
23120;DHT22;11729;50.836;4.330;2023-08-06T03:22:04;16.20;99.90
23120;DHT22;11729;50.836;4.330;2023-08-06T03:24:30;16.10;99.90
23120;DHT22;11729;50.836;4.330;2023-08-06T03:26:56;16.20;99.90
23120;DHT22;11729;50.836;4.330;2023-08-06T03:29:23;16.20;99.90
23120;DHT22;11729;50.836;4.330;2023-08-06T03:31:49;16.20;99.90
23120;DHT22;11729;50.836;4.330;2023-08-06T03:34:15;16.20;99.90
23120;DHT22;11729;50.836;4.330;2023-08-06T03:36:41;16.40;99.90
23120;DHT22;11729;50.836;4.330;2023-08-06T03:39:06;16.60;99.90
23120;DHT22;11729;50.836;4.330;2023-08-06T03:41:32;16.50;99.90
23120;DHT22;11729;50.836;4.330;2023-08-06T03:43:57;16.30;99.90
23120;DHT22;11729;50.836;4.330;2023-08-06T03:46:24;16.40;99.90
23120;DHT22;11729;50.836;4.330;2023-08-06T03:48:51;16.30;99.90
23120;DHT22;11729;50.836;4.330;2023-08-06T03:51:16;16.20;99.90
23120;DHT22;11729;50.836;4.330;2023-08-06T03:53:42;16.10;99.90
23120;DHT22;11729;50.836;4.330;2023-08-06T03:56:07;15.90;99.90
23120;DHT22;11729;50.836;4.330;2023-08-06T03:58:33;15.90;99.90
23120;DHT22;11729;50.836;4.330;2023-08-06T04:01:00;15.90;99.90
23120;DHT22;11729;50.836;4.330;2023-08-06T04:03:26;15.80;99.90
23120;DHT22;11729;50.836;4.330;2023-08-06T04:05:51;15.80;99.90
23120;DHT22;11729;50.836;4.330;2023-08-06T04:08:17;15.70;99.90
23120;DHT22;11729;50.836;4.330;2023-08-06T04:10:43;15.50;99.90
23120;DHT22;11729;50.836;4.330;2023-08-06T04:13:08;15.40;99.90
23120;DHT22;11729;50.836;4.330;2023-08-06T04:15:34;15.40;99.90
23120;DHT22;11729;50.836;4.330;2023-08-06T04:18:00;15.40;99.90
23120;DHT22;11729;50.836;4.330;2023-08-06T04:20:26;15.40;99.90
23120;DHT22;11729;50.836;4.330;2023-08-06T04:22:54;15.40;99.90
23120;DHT22;11729;50.836;4.330;2023-08-06T04:25:19;15.40;99.90
23120;DHT22;11729;50.836;4.330;2023-08-06T04:27:49;15.40;99.90
23120;DHT22;11729;50.836;4.330;2023-08-06T04:30:15;15.40;99.90
23120;DHT22;11729;50.836;4.330;2023-08-06T04:32:41;15.30;99.90
23120;DHT22;11729;50.836;4.330;2023-08-06T04:35:07;15.40;99.90
23120;DHT22;11729;50.836;4.330;2023-08-06T04:37:32;15.40;99.90
23120;DHT22;11729;50.836;4.330;2023-08-06T04:39:58;15.50;99.90
23120;DHT22;11729;50.836;4.330;2023-08-06T04:42:24;15.50;99.90
23120;DHT22;11729;50.836;4.330;2023-08-06T04:44:50;15.50;99.90
23120;DHT22;11729;50.836;4.330;2023-08-06T04:47:15;15.30;99.90
23120;DHT22;11729;50.836;4.330;2023-08-06T04:49:41;15.30;99.90
23120;DHT22;11729;50.836;4.330;2023-08-06T04:52:07;15.40;99.90
23120;DHT22;11729;50.836;4.330;2023-08-06T04:54:33;15.30;99.90
23120;DHT22;11729;50.836;4.330;2023-08-06T04:56:59;15.30;99.90
23120;DHT22;11729;50.836;4.330;2023-08-06T04:59:24;15.20;99.90
23120;DHT22;11729;50.836;4.330;2023-08-06T05:01:50;15.20;99.90
23120;DHT22;11729;50.836;4.330;2023-08-06T05:04:15;15.20;99.90
23120;DHT22;11729;50.836;4.330;2023-08-06T05:06:41;15.30;99.90
23120;DHT22;11729;50.836;4.330;2023-08-06T05:09:07;15.30;99.90
23120;DHT22;11729;50.836;4.330;2023-08-06T05:11:32;15.40;99.90
23120;DHT22;11729;50.836;4.330;2023-08-06T05:13:58;15.30;99.90
23120;DHT22;11729;50.836;4.330;2023-08-06T05:16:24;15.20;99.90
23120;DHT22;11729;50.836;4.330;2023-08-06T05:18:49;15.10;99.90
23120;DHT22;11729;50.836;4.330;2023-08-06T05:21:15;15.20;99.90
23120;DHT22;11729;50.836;4.330;2023-08-06T05:23:42;15.20;99.90
23120;DHT22;11729;50.836;4.330;2023-08-06T05:26:08;15.20;99.90
23120;DHT22;11729;50.836;4.330;2023-08-06T05:28:34;15.30;99.90
23120;DHT22;11729;50.836;4.330;2023-08-06T05:31:06;15.30;99.90
23120;DHT22;11729;50.836;4.330;2023-08-06T05:33:31;15.40;99.90
23120;DHT22;11729;50.836;4.330;2023-08-06T05:35:57;15.50;99.90
23120;DHT22;11729;50.836;4.330;2023-08-06T05:38:23;15.50;99.90
23120;DHT22;11729;50.836;4.330;2023-08-06T05:40:48;15.50;99.90
23120;DHT22;11729;50.836;4.330;2023-08-06T05:43:14;15.60;99.90
23120;DHT22;11729;50.836;4.330;2023-08-06T05:45:44;15.50;99.90
23120;DHT22;11729;50.836;4.330;2023-08-06T05:48:10;15.40;99.90
23120;DHT22;11729;50.836;4.330;2023-08-06T05:50:36;15.40;99.90
23120;DHT22;11729;50.836;4.330;2023-08-06T05:53:02;15.50;99.90
23120;DHT22;11729;50.836;4.330;2023-08-06T05:55:27;15.50;99.90
23120;DHT22;11729;50.836;4.330;2023-08-06T05:57:53;15.30;99.90
23120;DHT22;11729;50.836;4.330;2023-08-06T06:00:20;15.30;99.90
23120;DHT22;11729;50.836;4.330;2023-08-06T06:02:46;15.40;99.90
23120;DHT22;11729;50.836;4.330;2023-08-06T06:05:11;15.40;99.90
23120;DHT22;11729;50.836;4.330;2023-08-06T06:07:38;15.40;99.90
23120;DHT22;11729;50.836;4.330;2023-08-06T06:10:04;15.50;99.90
23120;DHT22;11729;50.836;4.330;2023-08-06T06:12:29;15.60;99.90
23120;DHT22;11729;50.836;4.330;2023-08-06T06:14:55;15.70;99.90
23120;DHT22;11729;50.836;4.330;2023-08-06T06:17:21;15.80;99.90
23120;DHT22;11729;50.836;4.330;2023-08-06T06:19:46;15.70;99.90
23120;DHT22;11729;50.836;4.330;2023-08-06T06:22:12;15.70;99.90
23120;DHT22;11729;50.836;4.330;2023-08-06T06:24:38;15.70;99.90
23120;DHT22;11729;50.836;4.330;2023-08-06T06:27:05;15.70;99.90
23120;DHT22;11729;50.836;4.330;2023-08-06T06:29:32;15.60;99.90
23120;DHT22;11729;50.836;4.330;2023-08-06T06:31:58;15.80;99.90
23120;DHT22;11729;50.836;4.330;2023-08-06T06:34:24;15.80;99.90
23120;DHT22;11729;50.836;4.330;2023-08-06T06:36:49;15.80;99.90
23120;DHT22;11729;50.836;4.330;2023-08-06T06:39:15;15.90;99.90
23120;DHT22;11729;50.836;4.330;2023-08-06T06:41:41;15.80;99.90
23120;DHT22;11729;50.836;4.330;2023-08-06T06:44:07;15.60;99.90
23120;DHT22;11729;50.836;4.330;2023-08-06T06:46:33;15.70;99.90
23120;DHT22;11729;50.836;4.330;2023-08-06T06:48:59;15.60;99.90
23120;DHT22;11729;50.836;4.330;2023-08-06T06:51:24;15.70;99.90
23120;DHT22;11729;50.836;4.330;2023-08-06T06:53:50;15.80;99.90
23120;DHT22;11729;50.836;4.330;2023-08-06T06:56:16;15.80;99.90
23120;DHT22;11729;50.836;4.330;2023-08-06T06:58:41;15.80;99.90
23120;DHT22;11729;50.836;4.330;2023-08-06T07:01:08;15.70;99.90
23120;DHT22;11729;50.836;4.330;2023-08-06T07:03:35;15.70;99.90
23120;DHT22;11729;50.836;4.330;2023-08-06T07:06:01;15.50;99.90
23120;DHT22;11729;50.836;4.330;2023-08-06T07:08:27;15.60;99.90
23120;DHT22;11729;50.836;4.330;2023-08-06T07:11:05;15.60;99.90
23120;DHT22;11729;50.836;4.330;2023-08-06T07:13:32;15.70;99.90
23120;DHT22;11729;50.836;4.330;2023-08-06T07:15:58;15.90;99.90
23120;DHT22;11729;50.836;4.330;2023-08-06T07:18:24;16.10;99.90
23120;DHT22;11729;50.836;4.330;2023-08-06T07:20:54;16.10;99.90
23120;DHT22;11729;50.836;4.330;2023-08-06T07:23:23;16.00;99.90
23120;DHT22;11729;50.836;4.330;2023-08-06T07:25:50;16.00;99.90
23120;DHT22;11729;50.836;4.330;2023-08-06T07:28:16;16.00;99.90
23120;DHT22;11729;50.836;4.330;2023-08-06T07:30:43;16.00;99.90
23120;DHT22;11729;50.836;4.330;2023-08-06T07:33:09;16.10;99.90
23120;DHT22;11729;50.836;4.330;2023-08-06T07:35:35;16.10;99.90
23120;DHT22;11729;50.836;4.330;2023-08-06T07:38:01;16.20;99.90
23120;DHT22;11729;50.836;4.330;2023-08-06T07:40:28;16.00;99.90
23120;DHT22;11729;50.836;4.330;2023-08-06T07:42:54;16.10;99.90
23120;DHT22;11729;50.836;4.330;2023-08-06T07:45:20;16.30;99.90
23120;DHT22;11729;50.836;4.330;2023-08-06T07:47:45;16.30;99.90
23120;DHT22;11729;50.836;4.330;2023-08-06T07:50:12;16.40;99.90
23120;DHT22;11729;50.836;4.330;2023-08-06T07:52:38;16.60;99.90
23120;DHT22;11729;50.836;4.330;2023-08-06T07:55:05;16.60;99.90
23120;DHT22;11729;50.836;4.330;2023-08-06T07:57:31;16.80;99.90
23120;DHT22;11729;50.836;4.330;2023-08-06T07:59:57;17.10;99.90
23120;DHT22;11729;50.836;4.330;2023-08-06T08:02:23;17.00;99.90
23120;DHT22;11729;50.836;4.330;2023-08-06T08:04:49;17.20;99.90
23120;DHT22;11729;50.836;4.330;2023-08-06T08:07:14;17.40;99.90
23120;DHT22;11729;50.836;4.330;2023-08-06T08:09:41;17.60;99.90
23120;DHT22;11729;50.836;4.330;2023-08-06T08:12:07;18.10;99.90
23120;DHT22;11729;50.836;4.330;2023-08-06T08:14:33;18.20;99.90
23120;DHT22;11729;50.836;4.330;2023-08-06T08:17:05;18.40;99.90
23120;DHT22;11729;50.836;4.330;2023-08-06T08:19:31;18.30;99.90
23120;DHT22;11729;50.836;4.330;2023-08-06T08:21:57;18.00;99.90
23120;DHT22;11729;50.836;4.330;2023-08-06T08:24:23;17.80;99.90
23120;DHT22;11729;50.836;4.330;2023-08-06T08:26:52;17.70;99.90
23120;DHT22;11729;50.836;4.330;2023-08-06T08:29:21;17.40;99.90
23120;DHT22;11729;50.836;4.330;2023-08-06T08:31:47;17.10;99.90
23120;DHT22;11729;50.836;4.330;2023-08-06T08:34:16;16.90;99.90
23120;DHT22;11729;50.836;4.330;2023-08-06T08:36:41;17.00;99.90
23120;DHT22;11729;50.836;4.330;2023-08-06T08:39:07;16.90;99.90
23120;DHT22;11729;50.836;4.330;2023-08-06T08:41:33;17.00;99.90
23120;DHT22;11729;50.836;4.330;2023-08-06T08:44:00;17.10;99.90
23120;DHT22;11729;50.836;4.330;2023-08-06T08:46:27;17.20;99.90
23120;DHT22;11729;50.836;4.330;2023-08-06T08:48:55;17.20;99.90
23120;DHT22;11729;50.836;4.330;2023-08-06T08:51:23;17.70;99.90
23120;DHT22;11729;50.836;4.330;2023-08-06T08:53:49;17.70;99.90
23120;DHT22;11729;50.836;4.330;2023-08-06T08:56:17;17.50;99.90
23120;DHT22;11729;50.836;4.330;2023-08-06T08:58:43;17.40;99.90
23120;DHT22;11729;50.836;4.330;2023-08-06T09:01:09;17.40;99.90
23120;DHT22;11729;50.836;4.330;2023-08-06T09:03:36;17.60;99.90
23120;DHT22;11729;50.836;4.330;2023-08-06T09:06:02;17.60;99.90
23120;DHT22;11729;50.836;4.330;2023-08-06T09:08:35;17.80;99.90
23120;DHT22;11729;50.836;4.330;2023-08-06T09:11:03;17.60;99.90
23120;DHT22;11729;50.836;4.330;2023-08-06T09:13:29;17.60;99.90
23120;DHT22;11729;50.836;4.330;2023-08-06T09:15:54;17.30;99.90
23120;DHT22;11729;50.836;4.330;2023-08-06T09:18:27;17.40;99.90
23120;DHT22;11729;50.836;4.330;2023-08-06T09:20:56;17.20;99.90
23120;DHT22;11729;50.836;4.330;2023-08-06T09:23:28;16.90;99.90
23120;DHT22;11729;50.836;4.330;2023-08-06T09:25:55;17.00;99.90
23120;DHT22;11729;50.836;4.330;2023-08-06T09:28:21;17.10;99.90
23120;DHT22;11729;50.836;4.330;2023-08-06T09:30:47;16.90;99.90
23120;DHT22;11729;50.836;4.330;2023-08-06T09:33:18;17.00;99.90
23120;DHT22;11729;50.836;4.330;2023-08-06T09:35:46;16.60;99.90
23120;DHT22;11729;50.836;4.330;2023-08-06T09:38:12;16.40;99.90
23120;DHT22;11729;50.836;4.330;2023-08-06T09:40:39;16.30;99.90
23120;DHT22;11729;50.836;4.330;2023-08-06T09:43:05;16.30;99.90
23120;DHT22;11729;50.836;4.330;2023-08-06T09:45:35;16.40;99.90
23120;DHT22;11729;50.836;4.330;2023-08-06T09:48:08;16.20;99.90
23120;DHT22;11729;50.836;4.330;2023-08-06T09:50:36;16.10;99.90
23120;DHT22;11729;50.836;4.330;2023-08-06T09:53:03;16.10;99.90
23120;DHT22;11729;50.836;4.330;2023-08-06T09:55:30;16.00;99.90
23120;DHT22;11729;50.836;4.330;2023-08-06T09:57:56;16.10;99.90
23120;DHT22;11729;50.836;4.330;2023-08-06T10:00:23;16.40;99.90
23120;DHT22;11729;50.836;4.330;2023-08-06T10:02:50;16.70;99.90
23120;DHT22;11729;50.836;4.330;2023-08-06T10:05:19;16.70;99.90
23120;DHT22;11729;50.836;4.330;2023-08-06T10:07:45;16.70;99.90
23120;DHT22;11729;50.836;4.330;2023-08-06T10:10:11;16.70;99.90
23120;DHT22;11729;50.836;4.330;2023-08-06T10:12:44;16.80;99.90
23120;DHT22;11729;50.836;4.330;2023-08-06T10:15:14;16.80;99.90
23120;DHT22;11729;50.836;4.330;2023-08-06T10:17:42;16.60;99.90
23120;DHT22;11729;50.836;4.330;2023-08-06T10:20:09;16.70;99.90
23120;DHT22;11729;50.836;4.330;2023-08-06T10:22:35;16.70;99.90
23120;DHT22;11729;50.836;4.330;2023-08-06T10:25:02;16.80;99.90
23120;DHT22;11729;50.836;4.330;2023-08-06T10:27:41;16.80;99.90
23120;DHT22;11729;50.836;4.330;2023-08-06T10:30:27;16.70;99.90
23120;DHT22;11729;50.836;4.330;2023-08-06T10:32:54;16.70;99.90
23120;DHT22;11729;50.836;4.330;2023-08-06T10:35:34;16.60;99.90
23120;DHT22;11729;50.836;4.330;2023-08-06T10:38:13;16.50;99.90
23120;DHT22;11729;50.836;4.330;2023-08-06T10:40:40;16.40;99.90
23120;DHT22;11729;50.836;4.330;2023-08-06T10:43:07;16.10;99.90
23120;DHT22;11729;50.836;4.330;2023-08-06T10:45:35;15.90;99.90
23120;DHT22;11729;50.836;4.330;2023-08-06T10:48:01;15.80;99.90
23120;DHT22;11729;50.836;4.330;2023-08-06T10:50:27;15.70;99.90
23120;DHT22;11729;50.836;4.330;2023-08-06T10:52:53;15.90;99.90
23120;DHT22;11729;50.836;4.330;2023-08-06T10:55:27;16.00;99.90
23120;DHT22;11729;50.836;4.330;2023-08-06T10:57:53;16.10;99.90
23120;DHT22;11729;50.836;4.330;2023-08-06T11:00:21;16.30;99.90
23120;DHT22;11729;50.836;4.330;2023-08-06T11:02:48;16.50;99.90
23120;DHT22;11729;50.836;4.330;2023-08-06T11:05:15;16.20;99.90
23120;DHT22;11729;50.836;4.330;2023-08-06T11:07:40;16.40;99.90
23120;DHT22;11729;50.836;4.330;2023-08-06T11:10:07;16.50;99.90
23120;DHT22;11729;50.836;4.330;2023-08-06T11:12:34;16.60;99.90
23120;DHT22;11729;50.836;4.330;2023-08-06T11:15:01;16.70;99.90
23120;DHT22;11729;50.836;4.330;2023-08-06T11:17:28;17.00;99.90
23120;DHT22;11729;50.836;4.330;2023-08-06T11:19:54;16.90;99.90
23120;DHT22;11729;50.836;4.330;2023-08-06T11:22:23;16.70;99.90
23120;DHT22;11729;50.836;4.330;2023-08-06T11:24:49;16.70;99.90
23120;DHT22;11729;50.836;4.330;2023-08-06T11:27:16;16.90;99.90
23120;DHT22;11729;50.836;4.330;2023-08-06T11:29:43;16.90;99.90
23120;DHT22;11729;50.836;4.330;2023-08-06T11:32:09;17.10;99.90
23120;DHT22;11729;50.836;4.330;2023-08-06T11:34:36;17.00;99.90
23120;DHT22;11729;50.836;4.330;2023-08-06T11:37:05;17.00;99.90
23120;DHT22;11729;50.836;4.330;2023-08-06T11:39:33;16.90;99.90
23120;DHT22;11729;50.836;4.330;2023-08-06T11:41:58;16.90;99.90
23120;DHT22;11729;50.836;4.330;2023-08-06T11:44:33;16.80;99.90
23120;DHT22;11729;50.836;4.330;2023-08-06T11:47:00;16.60;99.90
23120;DHT22;11729;50.836;4.330;2023-08-06T11:49:46;16.40;99.90
23120;DHT22;11729;50.836;4.330;2023-08-06T11:52:25;16.20;99.90
23120;DHT22;11729;50.836;4.330;2023-08-06T11:55:07;16.10;99.90
23120;DHT22;11729;50.836;4.330;2023-08-06T11:57:39;16.10;99.90
23120;DHT22;11729;50.836;4.330;2023-08-06T12:00:12;16.10;99.90
23120;DHT22;11729;50.836;4.330;2023-08-06T12:02:40;16.40;99.90
23120;DHT22;11729;50.836;4.330;2023-08-06T12:05:17;16.50;99.90
23120;DHT22;11729;50.836;4.330;2023-08-06T12:07:48;16.50;99.90
23120;DHT22;11729;50.836;4.330;2023-08-06T12:10:14;16.30;99.90
23120;DHT22;11729;50.836;4.330;2023-08-06T12:12:40;16.30;99.90
23120;DHT22;11729;50.836;4.330;2023-08-06T12:15:07;16.40;99.90
23120;DHT22;11729;50.836;4.330;2023-08-06T12:17:35;16.80;99.90
23120;DHT22;11729;50.836;4.330;2023-08-06T12:20:02;17.10;99.90
23120;DHT22;11729;50.836;4.330;2023-08-06T12:22:29;17.50;99.90
23120;DHT22;11729;50.836;4.330;2023-08-06T12:25:00;17.60;99.90
23120;DHT22;11729;50.836;4.330;2023-08-06T12:27:26;17.80;99.90
23120;DHT22;11729;50.836;4.330;2023-08-06T12:29:52;18.00;99.90
23120;DHT22;11729;50.836;4.330;2023-08-06T12:32:17;18.10;99.90
23120;DHT22;11729;50.836;4.330;2023-08-06T12:34:44;18.10;99.90
23120;DHT22;11729;50.836;4.330;2023-08-06T12:37:10;18.00;99.90
23120;DHT22;11729;50.836;4.330;2023-08-06T12:39:37;18.00;99.90
23120;DHT22;11729;50.836;4.330;2023-08-06T12:42:04;18.00;99.90
23120;DHT22;11729;50.836;4.330;2023-08-06T12:44:30;17.40;99.90
23120;DHT22;11729;50.836;4.330;2023-08-06T12:46:56;17.20;99.90
23120;DHT22;11729;50.836;4.330;2023-08-06T12:49:22;17.10;99.90
23120;DHT22;11729;50.836;4.330;2023-08-06T12:51:50;17.10;99.90
23120;DHT22;11729;50.836;4.330;2023-08-06T12:54:17;17.00;99.90
23120;DHT22;11729;50.836;4.330;2023-08-06T12:56:44;17.30;99.90
23120;DHT22;11729;50.836;4.330;2023-08-06T12:59:10;17.50;99.90
23120;DHT22;11729;50.836;4.330;2023-08-06T13:01:37;17.60;99.90
23120;DHT22;11729;50.836;4.330;2023-08-06T13:04:03;17.50;99.90
23120;DHT22;11729;50.836;4.330;2023-08-06T13:06:29;17.70;99.90
23120;DHT22;11729;50.836;4.330;2023-08-06T13:08:56;17.80;99.90
23120;DHT22;11729;50.836;4.330;2023-08-06T13:11:22;18.00;99.90
23120;DHT22;11729;50.836;4.330;2023-08-06T13:13:48;17.90;99.90
23120;DHT22;11729;50.836;4.330;2023-08-06T13:16:14;17.70;99.90
23120;DHT22;11729;50.836;4.330;2023-08-06T13:18:39;17.60;99.90
23120;DHT22;11729;50.836;4.330;2023-08-06T13:21:05;17.40;99.90
23120;DHT22;11729;50.836;4.330;2023-08-06T13:23:30;17.40;99.90
23120;DHT22;11729;50.836;4.330;2023-08-06T13:25:56;17.30;99.90
23120;DHT22;11729;50.836;4.330;2023-08-06T13:28:22;17.30;99.90
23120;DHT22;11729;50.836;4.330;2023-08-06T13:30:47;17.30;99.90
23120;DHT22;11729;50.836;4.330;2023-08-06T13:33:13;17.40;99.90
23120;DHT22;11729;50.836;4.330;2023-08-06T13:35:40;17.40;99.90
23120;DHT22;11729;50.836;4.330;2023-08-06T13:38:06;17.30;99.90
23120;DHT22;11729;50.836;4.330;2023-08-06T13:40:33;17.10;99.90
23120;DHT22;11729;50.836;4.330;2023-08-06T13:42:59;16.90;99.90
23120;DHT22;11729;50.836;4.330;2023-08-06T13:45:25;16.80;99.90
23120;DHT22;11729;50.836;4.330;2023-08-06T13:47:50;16.70;99.90
23120;DHT22;11729;50.836;4.330;2023-08-06T13:50:16;16.50;99.90
23120;DHT22;11729;50.836;4.330;2023-08-06T13:52:42;16.60;99.90
23120;DHT22;11729;50.836;4.330;2023-08-06T13:55:08;16.60;99.90
23120;DHT22;11729;50.836;4.330;2023-08-06T13:57:37;16.40;99.90
23120;DHT22;11729;50.836;4.330;2023-08-06T14:00:03;16.20;99.90
23120;DHT22;11729;50.836;4.330;2023-08-06T14:02:28;16.00;99.90
23120;DHT22;11729;50.836;4.330;2023-08-06T14:04:55;16.00;99.90
23120;DHT22;11729;50.836;4.330;2023-08-06T14:07:21;16.20;99.90
23120;DHT22;11729;50.836;4.330;2023-08-06T14:09:46;16.10;99.90
23120;DHT22;11729;50.836;4.330;2023-08-06T14:12:13;15.90;99.90
23120;DHT22;11729;50.836;4.330;2023-08-06T14:14:39;15.80;99.90
23120;DHT22;11729;50.836;4.330;2023-08-06T14:17:06;16.00;99.90
23120;DHT22;11729;50.836;4.330;2023-08-06T14:19:32;16.10;99.90
23120;DHT22;11729;50.836;4.330;2023-08-06T14:21:57;16.10;99.90
23120;DHT22;11729;50.836;4.330;2023-08-06T14:24:24;16.20;99.90
23120;DHT22;11729;50.836;4.330;2023-08-06T14:26:50;16.20;99.90
23120;DHT22;11729;50.836;4.330;2023-08-06T14:29:15;16.20;99.90
23120;DHT22;11729;50.836;4.330;2023-08-06T14:31:41;16.40;99.90
23120;DHT22;11729;50.836;4.330;2023-08-06T14:34:07;16.30;99.90
23120;DHT22;11729;50.836;4.330;2023-08-06T14:36:32;16.20;99.90
23120;DHT22;11729;50.836;4.330;2023-08-06T14:38:58;16.30;99.90
23120;DHT22;11729;50.836;4.330;2023-08-06T14:41:24;16.20;99.90
23120;DHT22;11729;50.836;4.330;2023-08-06T14:43:50;16.10;99.90
23120;DHT22;11729;50.836;4.330;2023-08-06T14:46:16;16.10;99.90
23120;DHT22;11729;50.836;4.330;2023-08-06T14:48:41;16.20;99.90
23120;DHT22;11729;50.836;4.330;2023-08-06T14:51:08;16.20;99.90
23120;DHT22;11729;50.836;4.330;2023-08-06T14:53:34;16.20;99.90
23120;DHT22;11729;50.836;4.330;2023-08-06T14:55:59;16.20;99.90
23120;DHT22;11729;50.836;4.330;2023-08-06T14:58:25;16.40;99.90
23120;DHT22;11729;50.836;4.330;2023-08-06T15:00:50;16.50;99.90
23120;DHT22;11729;50.836;4.330;2023-08-06T15:03:16;16.50;99.90
23120;DHT22;11729;50.836;4.330;2023-08-06T15:05:48;16.70;99.90
23120;DHT22;11729;50.836;4.330;2023-08-06T15:08:14;17.00;99.90
23120;DHT22;11729;50.836;4.330;2023-08-06T15:10:40;17.40;99.90
23120;DHT22;11729;50.836;4.330;2023-08-06T15:13:05;17.70;99.90
23120;DHT22;11729;50.836;4.330;2023-08-06T15:15:32;17.80;99.90
23120;DHT22;11729;50.836;4.330;2023-08-06T15:17:57;17.80;99.90
23120;DHT22;11729;50.836;4.330;2023-08-06T15:20:24;17.90;99.90
23120;DHT22;11729;50.836;4.330;2023-08-06T15:22:49;18.00;99.90
23120;DHT22;11729;50.836;4.330;2023-08-06T15:25:15;18.10;99.90
23120;DHT22;11729;50.836;4.330;2023-08-06T15:27:41;18.10;99.90